createdAt,value
2024-01-15T00:01:52.797Z,4.78
2024-01-15T00:04:20.343Z,6.93
2024-01-15T00:06:49.228Z,7.70
2024-01-15T00:09:16.868Z,5.63
2024-01-15T00:11:44.545Z,6.47
2024-01-15T00:14:13.082Z,8.10
2024-01-15T00:16:42.221Z,8.27
2024-01-15T00:19:09.758Z,8.93
2024-01-15T00:21:37.279Z,7.18
2024-01-15T00:24:06.373Z,9.25
2024-01-15T00:26:33.804Z,9.93
2024-01-15T00:29:01.275Z,9.30
2024-01-15T00:31:30.922Z,7.00
2024-01-15T00:33:58.628Z,9.50
2024-01-15T00:36:26.162Z,6.65
2024-01-15T00:38:53.814Z,8.63
2024-01-15T00:41:22.548Z,7.40
2024-01-15T00:43:50.207Z,7.85
2024-01-15T00:46:18.328Z,7.10
2024-01-15T00:48:46.302Z,8.30
2024-01-15T00:51:13.885Z,7.25
2024-01-15T00:53:42.677Z,6.55
2024-01-15T00:56:10.210Z,6.13
2024-01-15T00:58:38.978Z,5.82
2024-01-15T01:01:06.459Z,6.78
2024-01-15T01:03:34.257Z,8.18
2024-01-15T01:06:01.762Z,5.50
2024-01-15T01:08:29.171Z,7.43
2024-01-15T01:10:58.029Z,5.25
2024-01-15T01:13:25.440Z,5.63
2024-01-15T01:15:54.257Z,8.05
2024-01-15T01:18:21.910Z,7.10
2024-01-15T01:20:49.381Z,7.55
2024-01-15T01:23:17.236Z,7.97
2024-01-15T01:25:44.657Z,7.32
2024-01-15T01:28:12.144Z,7.68
2024-01-15T01:30:39.696Z,7.13
2024-01-15T01:33:08.707Z,8.20
2024-01-15T01:35:36.190Z,7.70
2024-01-15T01:38:03.740Z,6.57
2024-01-15T01:40:31.390Z,6.93
2024-01-15T01:42:58.826Z,7.80
2024-01-15T01:45:26.261Z,6.80
2024-01-15T01:47:53.876Z,7.13
2024-01-15T01:50:23.347Z,7.93
2024-01-15T01:52:51.427Z,6.28
2024-01-15T01:55:20.255Z,7.57
2024-01-15T01:57:47.909Z,8.68
2024-01-15T02:00:16.079Z,6.28
2024-01-15T02:02:43.544Z,8.77
2024-01-15T02:05:11.780Z,7.75
2024-01-15T02:07:40.588Z,8.88
2024-01-15T02:10:08.734Z,8.57
2024-01-15T02:12:36.184Z,10.05
2024-01-15T02:15:04.002Z,10.38
2024-01-15T02:17:31.443Z,7.05
2024-01-15T02:19:58.896Z,8.75
2024-01-15T02:22:26.328Z,7.38
2024-01-15T02:24:55.543Z,7.22
2024-01-15T02:27:23.325Z,5.80
2024-01-15T02:29:51.049Z,8.93
2024-01-15T02:32:18.450Z,9.02
2024-01-15T02:34:46.102Z,9.15
2024-01-15T02:37:13.642Z,11.18
2024-01-15T02:39:41.097Z,9.38
2024-01-15T02:42:09.930Z,8.20
2024-01-15T02:44:37.345Z,7.45
2024-01-15T02:47:04.995Z,7.10
2024-01-15T02:49:33.643Z,8.77
2024-01-15T02:52:01.396Z,7.57
2024-01-15T02:54:28.863Z,10.07
2024-01-15T02:56:56.259Z,7.15
2024-01-15T02:59:24.999Z,7.30
2024-01-15T03:01:52.486Z,9.93
2024-01-15T03:04:20.050Z,6.72
2024-01-15T03:06:47.651Z,8.95
2024-01-15T03:09:15.296Z,7.70
2024-01-15T03:11:43.019Z,7.72
2024-01-15T03:14:10.429Z,7.57
2024-01-15T03:16:39.186Z,11.50
2024-01-15T03:19:06.675Z,7.75
2024-01-15T03:21:34.168Z,8.07
2024-01-15T03:24:01.584Z,8.02
2024-01-15T03:26:29.020Z,7.22
2024-01-15T03:28:56.475Z,10.77
2024-01-15T03:31:24.044Z,9.50
2024-01-15T03:33:52.970Z,9.70
2024-01-15T03:36:20.772Z,7.40
2024-01-15T03:38:48.295Z,6.15
2024-01-15T03:41:16.031Z,9.07
2024-01-15T03:43:43.547Z,9.32
2024-01-15T03:46:10.948Z,11.48
2024-01-15T03:48:38.526Z,10.20
2024-01-15T03:51:07.684Z,7.20
2024-01-15T03:53:35.105Z,11.07
2024-01-15T03:56:02.527Z,9.60
2024-01-15T03:58:29.959Z,10.57
2024-01-15T04:00:57.513Z,8.40
2024-01-15T04:03:25.412Z,12.95
2024-01-15T04:05:52.968Z,12.15
2024-01-15T04:08:21.732Z,12.02
2024-01-15T04:10:49.190Z,7.53
2024-01-15T04:13:16.712Z,8.73
2024-01-15T04:15:44.162Z,8.70
2024-01-15T04:18:11.811Z,7.43
2024-01-15T04:20:39.580Z,10.02
2024-01-15T04:23:07.059Z,9.93
2024-01-15T04:25:35.878Z,8.05
2024-01-15T04:28:03.349Z,10.35
2024-01-15T04:30:30.819Z,6.63
2024-01-15T04:32:58.368Z,11.30
2024-01-15T04:35:25.927Z,6.97
2024-01-15T04:37:54.067Z,7.25
2024-01-15T04:40:21.504Z,9.13
2024-01-15T04:42:50.472Z,8.45
2024-01-15T04:45:19.641Z,8.95
2024-01-15T04:47:47.154Z,9.52
2024-01-15T04:50:14.749Z,11.15
2024-01-15T04:52:42.231Z,6.75
2024-01-15T04:55:10.060Z,10.43
2024-01-15T04:57:37.529Z,8.27
2024-01-15T05:00:07.613Z,15.30
2024-01-15T05:02:35.405Z,10.15
2024-01-15T05:05:02.845Z,10.35
2024-01-15T05:07:30.229Z,8.60
2024-01-15T05:09:57.718Z,8.13
2024-01-15T05:12:25.154Z,7.60
2024-01-15T05:14:52.592Z,11.48
2024-01-15T05:17:21.338Z,8.82
2024-01-15T05:19:48.945Z,13.15
2024-01-15T05:22:16.538Z,8.85
2024-01-15T05:24:43.980Z,9.68
2024-01-15T05:27:11.427Z,9.30
2024-01-15T05:29:38.851Z,11.07
2024-01-15T05:32:05.504Z,9.43
2024-01-15T05:34:34.542Z,9.43
2024-01-15T05:37:02.291Z,7.63
2024-01-15T05:39:29.760Z,7.75
2024-01-15T05:41:57.191Z,9.50
2024-01-15T05:44:24.614Z,12.23
2024-01-15T05:46:52.028Z,8.93
2024-01-15T05:49:19.608Z,7.65
2024-01-15T05:51:48.450Z,8.05
2024-01-15T05:54:15.962Z,11.20
2024-01-15T05:56:43.418Z,9.35
2024-01-15T05:59:14.103Z,11.50
2024-01-15T06:01:43.325Z,10.35
2024-01-15T06:04:10.985Z,12.82
2024-01-15T06:06:38.587Z,11.10
2024-01-15T06:09:07.465Z,10.00
2024-01-15T06:11:35.054Z,10.98
2024-01-15T06:14:02.823Z,11.68
2024-01-15T06:16:30.830Z,12.05
2024-01-15T06:18:58.576Z,9.20
2024-01-15T06:21:26.517Z,10.32
2024-01-15T06:23:54.119Z,15.85
2024-01-15T06:26:23.152Z,12.80
2024-01-15T06:28:50.760Z,9.20
2024-01-15T06:31:18.382Z,9.15
2024-01-15T06:33:48.378Z,11.18
2024-01-15T06:36:17.264Z,8.55
2024-01-15T06:38:45.896Z,10.38
2024-01-15T06:41:13.374Z,10.43
2024-01-15T06:43:42.142Z,8.10
2024-01-15T06:46:10.128Z,7.38
2024-01-15T06:48:38.199Z,7.05
2024-01-15T06:51:06.597Z,7.40
2024-01-15T06:53:34.109Z,7.18
2024-01-15T06:56:01.520Z,7.65
2024-01-15T06:58:28.940Z,6.57
2024-01-15T07:00:57.897Z,8.52
2024-01-15T07:03:25.652Z,7.97
2024-01-15T07:05:53.420Z,9.18
2024-01-15T07:08:20.953Z,8.55
2024-01-15T07:10:48.397Z,8.70
2024-01-15T07:13:15.872Z,7.53
2024-01-15T07:15:43.357Z,5.47
2024-01-15T07:18:12.249Z,8.38
2024-01-15T07:20:39.762Z,6.95
2024-01-15T07:23:08.005Z,5.57
2024-01-15T07:25:35.667Z,8.57
2024-01-15T07:28:04.889Z,6.40
2024-01-15T07:30:32.584Z,7.78
2024-01-15T07:33:00.322Z,6.90
2024-01-15T07:35:29.204Z,8.30
2024-01-15T07:37:56.721Z,4.53
2024-01-15T07:40:24.950Z,6.82
2024-01-15T07:42:53.300Z,7.30
2024-01-15T07:45:20.919Z,4.97
2024-01-15T07:47:48.747Z,6.47
2024-01-15T07:50:16.261Z,5.30
2024-01-15T07:52:45.000Z,6.35
2024-01-15T07:55:12.512Z,6.70
2024-01-15T07:57:40.192Z,10.10
2024-01-15T08:00:10.264Z,4.75
2024-01-15T08:02:38.231Z,11.30
2024-01-15T08:05:06.629Z,5.53
2024-01-15T08:07:34.250Z,6.15
2024-01-15T08:10:05.191Z,7.07
2024-01-15T08:12:33.001Z,6.90
2024-01-15T08:15:00.529Z,5.20
2024-01-15T08:17:29.562Z,7.00
2024-01-15T08:19:57.751Z,4.82
2024-01-15T08:22:25.374Z,8.75
2024-01-15T08:24:53.075Z,8.80
2024-01-15T08:27:22.069Z,6.93
2024-01-15T08:29:49.509Z,10.45
2024-01-15T08:32:16.992Z,10.23
2024-01-15T08:34:44.498Z,6.80
2024-01-15T08:37:11.976Z,4.70
2024-01-15T08:39:39.638Z,8.45
2024-01-15T08:42:07.504Z,5.25
2024-01-15T08:44:36.259Z,6.20
2024-01-15T08:47:04.026Z,4.57
2024-01-15T08:49:31.565Z,8.80
2024-01-15T08:51:59.504Z,5.47
2024-01-15T08:54:26.997Z,6.95
2024-01-15T08:56:54.391Z,5.93
2024-01-15T08:59:25.713Z,6.07
2024-01-15T09:01:55.199Z,6.45
2024-01-15T09:04:22.862Z,7.93
2024-01-15T09:06:50.451Z,4.80
2024-01-15T09:09:18.047Z,4.82
2024-01-15T09:11:45.478Z,6.97
2024-01-15T09:14:13.297Z,6.18
2024-01-15T09:16:41.753Z,5.57
2024-01-15T09:19:10.643Z,7.32
2024-01-15T09:21:41.222Z,6.00
2024-01-15T09:24:08.848Z,5.80
2024-01-15T09:26:36.275Z,4.47
2024-01-15T09:29:03.980Z,4.82
2024-01-15T09:31:33.249Z,4.10
2024-01-15T09:34:01.423Z,6.15
2024-01-15T09:36:31.209Z,6.32
2024-01-15T09:38:58.727Z,6.47
2024-01-15T09:41:26.549Z,4.25
2024-01-15T09:43:54.177Z,7.38
2024-01-15T09:46:21.946Z,8.35
2024-01-15T09:48:50.365Z,3.45
2024-01-15T09:51:19.233Z,5.72
2024-01-15T09:53:48.933Z,4.95
2024-01-15T09:56:17.094Z,6.00
2024-01-15T09:58:45.103Z,5.97
2024-01-15T10:01:13.873Z,5.20
2024-01-15T10:03:41.951Z,7.20
2024-01-15T10:06:11.359Z,4.00
2024-01-15T10:08:41.188Z,6.85
2024-01-15T10:11:09.904Z,4.45
2024-01-15T10:13:40.625Z,2.33
2024-01-15T10:16:10.182Z,3.90
2024-01-15T10:18:38.108Z,4.18
2024-01-15T10:21:07.160Z,5.30
2024-01-15T10:23:34.630Z,3.42
2024-01-15T10:26:02.187Z,5.75
2024-01-15T10:28:32.637Z,6.00
2024-01-15T10:31:01.696Z,2.17
2024-01-15T10:33:29.799Z,5.10
2024-01-15T10:35:59.223Z,8.25
2024-01-15T10:38:27.063Z,5.18
2024-01-15T10:40:54.993Z,3.55
2024-01-15T10:43:25.120Z,3.55
2024-01-15T10:45:55.478Z,4.63
2024-01-15T10:48:23.014Z,7.15
2024-01-15T10:50:51.168Z,3.30
2024-01-15T10:53:20.179Z,5.00
2024-01-15T10:55:49.497Z,4.53
2024-01-15T10:58:18.293Z,5.97
2024-01-15T11:00:46.310Z,4.55
2024-01-15T11:03:15.634Z,8.27
2024-01-15T11:05:45.358Z,3.97
2024-01-15T11:08:13.256Z,5.50
2024-01-15T11:10:42.728Z,3.75
2024-01-15T11:13:16.350Z,6.40
2024-01-15T11:16:03.540Z,6.43
2024-01-15T11:18:37.901Z,5.25
2024-01-15T11:21:26.077Z,4.70
2024-01-15T11:23:57.345Z,4.00
2024-01-15T11:26:38.667Z,7.28
2024-01-15T11:29:07.904Z,4.85
2024-01-15T11:32:02.886Z,5.10
2024-01-15T11:34:55.308Z,4.50
2024-01-15T11:37:24.553Z,4.15
2024-01-15T11:39:53.849Z,4.72
2024-01-15T11:42:23.399Z,3.75
2024-01-15T11:44:52.152Z,3.95
2024-01-15T11:47:52.960Z,4.80
2024-01-15T11:50:23.657Z,4.90
2024-01-15T11:53:03.510Z,5.53
2024-01-15T11:55:36.897Z,4.45
2024-01-15T11:58:08.699Z,4.55
2024-01-15T12:00:36.246Z,3.97
2024-01-15T12:03:03.746Z,3.05
2024-01-15T12:05:32.573Z,3.50
2024-01-15T12:08:00.041Z,4.10
2024-01-15T12:10:27.743Z,3.30
2024-01-15T12:13:00.677Z,4.70
2024-01-15T12:15:30.514Z,4.22
2024-01-15T12:17:59.652Z,4.22
2024-01-15T12:20:27.730Z,4.55
2024-01-15T12:23:01.675Z,3.60
2024-01-15T12:25:32.156Z,5.63
2024-01-15T12:28:00.621Z,3.97
2024-01-15T12:30:28.663Z,4.47
2024-01-15T12:32:56.660Z,5.30
2024-01-15T12:35:27.200Z,5.72
2024-01-15T12:37:56.420Z,6.18
2024-01-15T12:40:24.919Z,5.03
2024-01-15T12:42:52.393Z,5.43
2024-01-15T12:45:20.149Z,4.25
2024-01-15T12:47:49.133Z,5.72
2024-01-15T12:50:20.031Z,4.75
2024-01-15T12:52:48.675Z,4.80
2024-01-15T12:55:17.772Z,4.15
2024-01-15T12:57:46.323Z,5.40
2024-01-15T13:00:15.996Z,5.38
2024-01-15T13:02:44.827Z,5.72
2024-01-15T13:05:14.853Z,4.80
2024-01-15T13:07:43.766Z,4.80
2024-01-15T13:10:13.389Z,4.25
2024-01-15T13:12:43.213Z,7.95
2024-01-15T13:15:13.963Z,4.90
2024-01-15T13:17:42.894Z,4.30
2024-01-15T13:20:12.340Z,5.60
2024-01-15T13:22:41.123Z,4.65
2024-01-15T13:25:10.164Z,5.60
2024-01-15T13:27:39.333Z,5.90
2024-01-15T13:30:10.705Z,4.35
2024-01-15T13:32:38.260Z,4.95
2024-01-15T13:35:10.732Z,5.30
2024-01-15T13:37:39.046Z,4.43
2024-01-15T13:40:09.143Z,5.07
2024-01-15T13:42:39.240Z,3.38
2024-01-15T13:45:08.542Z,8.38
2024-01-15T13:47:39.234Z,4.13
2024-01-15T13:50:07.478Z,4.65
2024-01-15T13:52:35.036Z,4.93
2024-01-15T13:55:02.807Z,4.45
2024-01-15T13:57:30.366Z,4.78
2024-01-15T13:59:58.073Z,7.88
2024-01-15T14:02:26.599Z,4.40
2024-01-15T14:04:56.128Z,5.05
2024-01-15T14:07:23.550Z,4.57
2024-01-15T14:09:51.124Z,6.20
2024-01-15T14:12:18.778Z,7.40
2024-01-15T14:14:49.077Z,6.13
2024-01-15T14:17:16.481Z,5.72
2024-01-15T14:19:44.321Z,4.47
2024-01-15T14:22:13.336Z,5.20
2024-01-15T14:24:40.805Z,5.93
2024-01-15T14:27:08.359Z,5.35
2024-01-15T14:29:36.826Z,5.82
2024-01-15T14:32:05.032Z,6.65
2024-01-15T14:34:32.632Z,6.35
2024-01-15T14:37:00.289Z,7.70
2024-01-15T14:39:29.258Z,5.55
2024-01-15T14:41:58.066Z,4.88
2024-01-15T14:44:25.497Z,5.53
2024-01-15T14:46:53.051Z,4.57
2024-01-15T14:49:20.526Z,6.07
2024-01-15T14:51:48.178Z,4.57
2024-01-15T14:54:16.117Z,5.25
2024-01-15T14:56:44.935Z,5.88
2024-01-15T14:59:12.433Z,4.90
2024-01-15T15:01:41.241Z,4.50
2024-01-15T15:04:09.453Z,6.40
2024-01-15T15:06:37.572Z,5.63
2024-01-15T15:09:09.963Z,5.65
2024-01-15T15:11:37.714Z,6.05
2024-01-15T15:14:06.471Z,4.15
2024-01-15T15:16:33.972Z,6.05
2024-01-15T15:19:01.497Z,5.97
2024-01-15T15:21:29.786Z,6.07
2024-01-15T15:23:57.410Z,4.40
2024-01-15T15:26:25.160Z,6.53
2024-01-15T15:28:52.696Z,8.25
2024-01-15T15:31:21.490Z,6.30
2024-01-15T15:33:49.088Z,4.35
2024-01-15T15:36:16.630Z,5.85
2024-01-15T15:38:44.097Z,4.47
2024-01-15T15:41:11.557Z,3.60
2024-01-15T15:43:38.968Z,5.38
2024-01-15T15:46:06.791Z,6.40
2024-01-15T15:48:35.636Z,4.63
2024-01-15T15:51:04.198Z,6.40
2024-01-15T15:53:31.917Z,6.93
2024-01-15T15:55:59.781Z,4.47
2024-01-15T15:58:27.287Z,5.15
2024-01-15T16:00:55.158Z,5.05
2024-01-15T16:03:22.818Z,7.07
2024-01-15T16:05:53.357Z,7.60
2024-01-15T16:08:22.037Z,9.57
2024-01-15T16:10:52.426Z,4.65
2024-01-15T16:13:21.276Z,7.38
2024-01-15T16:15:49.339Z,9.18
2024-01-15T16:23:20.133Z,5.65
2024-01-15T16:23:35.030Z,5.95
2024-01-15T16:24:12.362Z,3.38
2024-01-15T16:26:42.838Z,6.35
2024-01-15T16:29:10.822Z,5.80
2024-01-15T16:31:39.289Z,4.90
2024-01-15T16:34:07.553Z,4.50
2024-01-15T16:36:37.632Z,5.35
2024-01-15T16:39:05.233Z,5.68
2024-01-15T16:41:33.337Z,5.95
2024-01-15T16:44:00.930Z,5.35
2024-01-15T16:46:29.142Z,5.18
2024-01-15T16:48:57.315Z,3.88
2024-01-15T16:51:24.836Z,8.23
2024-01-15T16:53:53.819Z,8.30
2024-01-15T16:56:21.608Z,11.10
2024-01-15T16:58:49.165Z,5.03
2024-01-15T17:01:16.709Z,6.80
2024-01-15T17:03:44.343Z,6.57
2024-01-15T17:06:11.812Z,8.52
2024-01-15T17:08:39.292Z,5.85
2024-01-15T17:11:08.738Z,5.82
2024-01-15T17:13:36.187Z,6.68
2024-01-15T17:16:05.013Z,8.40
2024-01-15T17:18:32.718Z,6.75
2024-01-15T17:21:00.327Z,6.05
2024-01-15T17:23:27.807Z,7.78
2024-01-15T17:25:55.302Z,5.85
2024-01-15T17:28:25.423Z,8.38
2024-01-15T17:30:53.075Z,5.38
2024-01-15T17:33:21.105Z,4.75
2024-01-15T17:35:53.000Z,4.50
2024-01-15T17:38:20.486Z,4.90
2024-01-15T17:40:48.716Z,4.53
2024-01-15T17:43:17.005Z,5.72
2024-01-15T17:45:45.786Z,5.07
2024-01-15T17:48:13.585Z,4.18
2024-01-15T17:50:41.147Z,5.45
2024-01-15T17:53:10.423Z,3.95
2024-01-15T17:55:38.010Z,4.53
2024-01-15T17:58:06.973Z,4.93
2024-01-15T18:00:35.084Z,3.97
2024-01-15T18:03:03.924Z,5.40
2024-01-15T18:05:31.495Z,4.30
2024-01-15T18:07:59.178Z,4.63
2024-01-15T18:10:27.759Z,5.35
2024-01-15T18:12:55.254Z,8.25
2024-01-15T18:15:22.748Z,3.97
2024-01-15T18:17:50.338Z,3.38
2024-01-15T18:20:19.666Z,7.53
2024-01-15T18:22:50.806Z,5.45
2024-01-15T18:25:19.788Z,3.05
2024-01-15T18:27:47.273Z,4.38
2024-01-15T18:30:15.377Z,5.78
2024-01-15T18:32:43.076Z,6.50
2024-01-15T18:35:10.940Z,6.10
2024-01-15T18:37:39.762Z,5.70
2024-01-15T18:40:08.449Z,7.63
2024-01-15T18:42:35.893Z,6.45
2024-01-15T18:45:03.331Z,4.95
2024-01-15T18:47:32.133Z,5.95
2024-01-15T18:49:59.666Z,5.35
2024-01-15T18:52:27.915Z,7.68
2024-01-15T18:54:57.213Z,7.28
2024-01-15T18:57:24.637Z,6.32
2024-01-15T18:59:52.316Z,5.78
2024-01-15T19:02:19.779Z,6.18
2024-01-15T19:04:47.352Z,5.82
2024-01-15T19:07:14.822Z,7.13
2024-01-15T19:09:42.963Z,5.50
2024-01-15T19:12:11.675Z,7.63
2024-01-15T19:14:40.080Z,6.30
2024-01-15T19:17:07.638Z,5.00
2024-01-15T19:19:37.888Z,6.38
2024-01-15T19:22:05.826Z,6.28
2024-01-15T19:24:33.964Z,7.03
2024-01-15T19:27:01.363Z,6.65
2024-01-15T19:29:30.181Z,4.95
2024-01-15T19:31:59.519Z,4.60
2024-01-15T19:34:27.177Z,22.05
2024-01-15T19:36:55.180Z,7.68
2024-01-15T19:39:24.183Z,5.32
2024-01-15T19:41:51.639Z,5.63
2024-01-15T19:44:19.098Z,6.47
2024-01-15T19:46:47.877Z,3.90
2024-01-15T19:49:15.304Z,5.82
2024-01-15T19:51:42.753Z,4.20
2024-01-15T19:54:10.163Z,5.38
2024-01-15T19:56:38.904Z,5.03
2024-01-15T19:59:07.984Z,6.53
2024-01-15T20:01:35.951Z,6.88
2024-01-15T20:04:04.866Z,5.18
2024-01-15T20:06:32.481Z,5.22
2024-01-15T20:09:00.045Z,5.00
2024-01-15T20:11:27.680Z,3.58
2024-01-15T20:13:55.163Z,3.65
2024-01-15T20:16:23.092Z,5.20
2024-01-15T20:18:50.743Z,3.50
2024-01-15T20:21:19.576Z,3.67
2024-01-15T20:23:55.137Z,4.53
2024-01-15T20:26:27.003Z,3.03
2024-01-15T20:28:55.508Z,4.15
2024-01-15T20:31:23.046Z,3.17
2024-01-15T20:33:52.616Z,3.33
2024-01-15T20:36:21.441Z,2.72
2024-01-15T20:38:48.952Z,4.97
2024-01-15T20:41:17.258Z,4.28
2024-01-15T20:43:45.922Z,2.70
2024-01-15T20:46:13.436Z,3.38
2024-01-15T20:48:40.934Z,2.75
2024-01-15T20:51:08.409Z,3.42
2024-01-15T20:53:38.002Z,4.03
2024-01-15T20:56:06.533Z,2.28
2024-01-15T20:58:34.053Z,3.75
2024-01-15T21:01:01.516Z,4.53
2024-01-15T21:03:29.393Z,3.05
2024-01-15T21:05:57.189Z,2.45
2024-01-15T21:08:24.963Z,3.20
2024-01-15T21:10:53.823Z,4.10
2024-01-15T21:13:21.375Z,5.03
2024-01-15T21:15:48.786Z,11.65
2024-01-15T21:18:17.764Z,10.80
2024-01-15T21:20:45.694Z,7.47
2024-01-15T21:23:13.257Z,3.58
2024-01-15T21:25:40.863Z,3.03
2024-01-15T21:28:09.564Z,2.65
2024-01-15T21:30:37.180Z,2.15
2024-01-15T21:33:06.003Z,3.90
2024-01-15T21:35:35.014Z,2.80
2024-01-15T21:38:02.625Z,3.97
2024-01-15T21:40:30.288Z,4.25
2024-01-15T21:42:58.009Z,2.80
2024-01-15T21:45:27.839Z,1.63
2024-01-15T21:47:55.467Z,2.75
2024-01-15T21:50:23.876Z,2.33
2024-01-15T21:52:51.341Z,2.70
2024-01-15T21:55:19.130Z,3.05
2024-01-15T21:57:46.575Z,3.97
2024-01-15T22:00:16.624Z,3.00
2024-01-15T22:02:46.704Z,3.15
2024-01-15T22:05:14.491Z,2.42
2024-01-15T22:07:43.892Z,2.10
2024-01-15T22:10:12.520Z,3.85
2024-01-15T22:12:40.000Z,2.30
2024-01-15T22:15:09.277Z,1.65
2024-01-15T22:17:36.873Z,2.60
2024-01-15T22:20:08.920Z,1.50
2024-01-15T22:22:36.432Z,2.03
2024-01-15T22:25:04.526Z,1.70
2024-01-15T22:27:32.036Z,1.55
2024-01-15T22:29:59.480Z,1.65
2024-01-15T22:32:30.069Z,1.92
2024-01-15T22:34:59.347Z,1.25
2024-01-15T22:37:28.133Z,1.23
2024-01-15T22:39:55.559Z,1.95
2024-01-15T22:42:22.962Z,1.10
2024-01-15T22:44:50.513Z,3.38
2024-01-15T22:47:18.073Z,1.50
2024-01-15T22:49:45.506Z,1.77
2024-01-15T22:52:12.957Z,1.55
2024-01-15T22:54:41.661Z,3.25
2024-01-15T22:57:09.108Z,1.50
2024-01-15T22:59:37.144Z,1.80
2024-01-15T23:02:04.869Z,1.63
2024-01-15T23:04:32.386Z,3.28
2024-01-15T23:06:59.882Z,1.40
2024-01-15T23:09:27.383Z,1.45
2024-01-15T23:11:56.458Z,2.30
2024-01-15T23:14:24.018Z,4.43
2024-01-15T23:16:51.876Z,3.55
2024-01-15T23:19:19.329Z,3.08
2024-01-15T23:21:46.833Z,2.28
2024-01-15T23:24:14.251Z,1.92
2024-01-15T23:26:41.722Z,2.10
2024-01-15T23:29:10.536Z,2.47
2024-01-15T23:31:41.344Z,1.92
2024-01-15T23:34:09.713Z,1.08
2024-01-15T23:36:37.753Z,2.03
2024-01-15T23:39:08.804Z,4.68
2024-01-15T23:41:37.204Z,3.85
2024-01-15T23:44:05.206Z,3.40
2024-01-15T23:46:34.162Z,3.92
2024-01-15T23:49:01.616Z,1.80
2024-01-15T23:51:29.061Z,2.35
2024-01-15T23:53:56.475Z,1.10
2024-01-15T23:56:23.961Z,0.82
2024-01-15T23:58:51.718Z,1.10
